Logan International, MA

9:46 PM EDT on September 16, 2014 (GMT -0400)
Agassiz | Change Station
CLOSE
Current Station
Personal Weather Station
Location: Cambridge, MA
Elevation: 46 ft
Nearby Weather Stations

Elev 46 ft 42.38 °N, 71.11 °W | Updated 9 minutes ago

Mostly Cloudy
Mostly Cloudy
61.3 °F
Feels Like 61.3 °F
N
0.0
Wind Variable Wind from West

Today
High -- | Low -- °F
--% Chance of Precip.
Yesterday
High -- | Low -- °F
Precip. -- in
6:24 AM 6:51 PM
Last Quarter, 40% visible
Pressure 29.99 in
Visibility 10.0 miles
Clouds Mostly Cloudy 8000 ft
Dew Point 54 °F
Humidity 77%
Rainfall 0.00 in
Snow Depth Not available.
UV 0 out of 12
Pollen 2.50 out of 12
PM2.5 Good
Flu Activity Not available.
METAR KBOS 170054Z 18003KT 10SM BKN080 16/13 A2999 RMK AO2 SLP153 T01610128

More Conditions Fewer Conditions

Pressure 29.99 in
Visibility 10.0 miles
Clouds Mostly Cloudy 8000 ft
Dew Point 54 °F
Humidity 77%
Rainfall 0.00 in
Snow Depth Not available.
UV 0 out of 12
Pollen 2.50 out of 12
PM2.5 Good
Flu Activity Not available.
METAR KBOS 170054Z 18003KT 10SM BKN080 16/13 A2999 RMK AO2 SLP153 T01610128

More Conditions Fewer Conditions

10-Day Weather Forecast

Almanac

Astronomy

Sep. 16, 2014 Rise Set
Actual Time 6:24 AM EDT 6:51 PM EDT
Civil Twilight 5:56 AM EDT 7:20 PM EDT
Nautical Twilight 5:23 AM EDT 7:53 PM EDT
Astronomical Twilight 4:49 AM EDT 8:27 PM EDT
Moon No Moon Rise 2:18 PM EDT (9/16)
Length of Visible Light 13h 23m
Length of Day
12h 27m
Tomorrow will be 2m 50s shorter.
Last Quarter, 40% of the Moon is Illuminated
Today
Last Quarter
Sep 24
New
Oct 1
First Quarter
Oct 8
Full
Oct 15
Last Quarter

Today's Extremes

State Highs State Lows

Community

WunderPhotos

Upload Photos

1,753,945 photos uploaded!

Nearby

Air Quality

  Air Quality AQ Index Pollutant
Yesterday Good
PM2.5
Yesterday Good
OZONE
Current Good
PM2.5
Tuesday Good
PM2.5
Tuesday Good
OZONE
Wednesday Good
PM2.5
Wednesday Good
OZONE

Snow Depth

Station Depth Elevation
No new snow has been reported.

Earthquake Activity

City Distance Mag. Time & Date
No recent earthquake activity has been reported nearby.
Minimum magnitude displayed is 2.5.

Coastal Water Temperatures

Place Temperature
Boston, MA 63.0 °F
Providence, RI 70.0 °F
Fall River, MA 71.1 °F
Conimicut Light, RI 69.1 °F

Nearby Weather Stations